createdAt,value
2022-10-31T00:01:39.667Z,-88
2022-10-31T00:04:07.304Z,-86
2022-10-31T00:06:34.714Z,-88
2022-10-31T00:09:04.576Z,-90
2022-10-31T00:11:32.246Z,-88
2022-10-31T00:14:00.369Z,-88
2022-10-31T00:16:29.605Z,-88
2022-10-31T00:19:07.083Z,-88
2022-10-31T00:21:35.972Z,-87
2022-10-31T00:24:03.980Z,-82
2022-10-31T00:26:32.606Z,-90
2022-10-31T00:29:01.450Z,-88
2022-10-31T00:31:29.315Z,-88
2022-10-31T00:33:57.651Z,-89
2022-10-31T00:36:24.824Z,-88
2022-10-31T00:38:51.899Z,-89
2022-10-31T00:41:19.553Z,-88
2022-10-31T00:43:47.377Z,-88
2022-10-31T00:46:15.227Z,-89
2022-10-31T00:48:43.102Z,-88
2022-10-31T00:51:11.488Z,-88
2022-10-31T00:53:38.665Z,-89
2022-10-31T00:56:06.626Z,-87
2022-10-31T00:58:33.922Z,-87
2022-10-31T01:01:01.292Z,-88
2022-10-31T01:03:33.673Z,-87
2022-10-31T01:06:10.973Z,-89
2022-10-31T01:08:39.961Z,-89
2022-10-31T01:11:22.199Z,-89
2022-10-31T01:13:53.537Z,-89
2022-10-31T01:16:24.334Z,-89
2022-10-31T01:18:53.378Z,-87
2022-10-31T01:21:27.722Z,-88
2022-10-31T01:23:58.875Z,-88
2022-10-31T01:26:41.820Z,-87
2022-10-31T01:29:09.626Z,-88
2022-10-31T01:31:40.490Z,-88
2022-10-31T01:34:10.149Z,-88
2022-10-31T01:36:39.792Z,-88
2022-10-31T01:39:14.409Z,-88
2022-10-31T01:41:46.640Z,-89
2022-10-31T01:44:16.577Z,-89
2022-10-31T01:47:11.122Z,-89
2022-10-31T01:49:49.498Z,-88
2022-10-31T01:52:31.003Z,-88
2022-10-31T01:55:06.799Z,-88
2022-10-31T01:57:36.439Z,-87
2022-10-31T02:00:10.598Z,-85
2022-10-31T02:02:38.072Z,-88
2022-10-31T02:05:13.323Z,-89
2022-10-31T02:08:09.547Z,-88
2022-10-31T02:10:38.574Z,-87
2022-10-31T02:13:09.411Z,-87
2022-10-31T02:15:40.146Z,-87
2022-10-31T02:18:09.355Z,-88
2022-10-31T02:20:42.667Z,-88
2022-10-31T02:23:50.442Z,-89
2022-10-31T02:26:36.047Z,-87
2022-10-31T02:29:39.256Z,-81
2022-10-31T02:32:46.510Z,-89
2022-10-31T02:35:22.918Z,-88
2022-10-31T02:38:21.234Z,-88
2022-10-31T02:41:20.074Z,-88
2022-10-31T02:44:21.147Z,-86
2022-10-31T02:47:02.708Z,-86
2022-10-31T02:49:44.100Z,-87
2022-10-31T02:52:24.233Z,-87
2022-10-31T02:54:51.748Z,-88
2022-10-31T02:57:30.039Z,-88
2022-10-31T03:00:08.594Z,-87
2022-10-31T03:03:20.519Z,-89
2022-10-31T03:06:22.309Z,-88
2022-10-31T03:09:09.840Z,-87
2022-10-31T03:12:12.780Z,-87
2022-10-31T03:15:09.185Z,-88
2022-10-31T03:17:54.013Z,-87
2022-10-31T03:20:29.999Z,-87
2022-10-31T03:22:59.196Z,-89
2022-10-31T03:25:28.679Z,-86
2022-10-31T03:28:00.041Z,-88
2022-10-31T03:30:28.058Z,-87
2022-10-31T03:33:00.763Z,-88
2022-10-31T03:35:31.425Z,-87
2022-10-31T03:38:06.783Z,-87
2022-10-31T03:40:39.286Z,-86
2022-10-31T03:43:15.392Z,-86
2022-10-31T03:45:47.671Z,-86
2022-10-31T03:48:18.803Z,-86
2022-10-31T03:51:07.681Z,-87
2022-10-31T03:54:03.027Z,-88
2022-10-31T03:56:49.378Z,-88
2022-10-31T03:59:34.414Z,-89
2022-10-31T04:02:09.191Z,-86
2022-10-31T04:04:38.325Z,-88
2022-10-31T04:07:07.820Z,-88
2022-10-31T04:09:40.885Z,-85
2022-10-31T04:12:12.442Z,-85
2022-10-31T04:14:43.939Z,-82
2022-10-31T04:17:18.673Z,-88
2022-10-31T04:19:46.341Z,-88
2022-10-31T04:22:14.247Z,-88
2022-10-31T04:24:42.272Z,-89
2022-10-31T04:27:09.449Z,-88
2022-10-31T04:29:36.586Z,-88
2022-10-31T04:32:03.850Z,-85
2022-10-31T04:34:30.949Z,-89
2022-10-31T04:36:58.251Z,-88
2022-10-31T04:39:26.716Z,-86
2022-10-31T04:41:54.199Z,-88
2022-10-31T04:44:21.452Z,-88
2022-10-31T04:46:48.843Z,-87
2022-10-31T04:49:15.945Z,-88
2022-10-31T04:51:43.019Z,-89
2022-10-31T04:54:10.193Z,-87
2022-10-31T04:56:37.369Z,-89
2022-10-31T04:59:04.505Z,-88
2022-10-31T05:01:31.861Z,-88
2022-10-31T05:03:59.086Z,-88
2022-10-31T05:06:26.242Z,-87
2022-10-31T05:08:53.372Z,-88
2022-10-31T05:11:20.474Z,-88
2022-10-31T05:13:47.768Z,-88
2022-10-31T05:16:15.111Z,-89
2022-10-31T05:18:42.498Z,-87
2022-10-31T05:21:09.685Z,-88
2022-10-31T05:23:36.775Z,-87
2022-10-31T05:26:04.334Z,-81
2022-10-31T05:28:31.480Z,-87
2022-10-31T05:30:58.652Z,-87
2022-10-31T05:33:25.847Z,-86
2022-10-31T05:35:53.036Z,-87
2022-10-31T05:38:20.279Z,-88
2022-10-31T05:40:47.378Z,-87
2022-10-31T05:43:14.878Z,-87
2022-10-31T05:45:41.949Z,-89
2022-10-31T05:48:09.885Z,-88
2022-10-31T05:50:37.010Z,-87
2022-10-31T05:53:06.389Z,-84
2022-10-31T05:55:34.248Z,-79
2022-10-31T05:58:02.003Z,-85
2022-10-31T06:00:29.708Z,-84
2022-10-31T06:03:05.517Z,-86
2022-10-31T06:05:33.390Z,-85
2022-10-31T06:08:01.930Z,-89
2022-10-31T06:10:29.797Z,-88
2022-10-31T06:12:56.932Z,-89
2022-10-31T06:15:24.946Z,-87
2022-10-31T06:18:06.938Z,-88
2022-10-31T06:20:35.255Z,-81
2022-10-31T06:23:03.761Z,-85
2022-10-31T06:25:31.267Z,-84
2022-10-31T06:27:58.558Z,-86
2022-10-31T06:30:26.583Z,-84
2022-10-31T06:32:54.024Z,-82
2022-10-31T06:35:21.466Z,-83
2022-10-31T06:37:55.756Z,-87
2022-10-31T06:40:25.264Z,-85
2022-10-31T06:43:02.496Z,-87
2022-10-31T06:45:30.333Z,-86
2022-10-31T06:50:45.839Z,-86
2022-10-31T06:53:13.268Z,-84
2022-10-31T06:55:40.977Z,-84
2022-10-31T06:58:10.740Z,-81
2022-10-31T07:00:38.296Z,-83
2022-10-31T07:03:11.586Z,-83
2022-10-31T07:05:39.126Z,-83
2022-10-31T07:08:10.527Z,-82
2022-10-31T07:10:41.002Z,-81
2022-10-31T07:13:14.263Z,-84
2022-10-31T07:15:44.096Z,-83
2022-10-31T07:18:13.600Z,-83
2022-10-31T07:20:40.867Z,-83
2022-10-31T07:23:10.539Z,-82
2022-10-31T07:25:39.116Z,-84
2022-10-31T07:28:07.014Z,-82
2022-10-31T07:30:34.503Z,-79
2022-10-31T07:33:01.811Z,-78
2022-10-31T07:35:30.551Z,-78
2022-10-31T07:37:58.694Z,-78
2022-10-31T07:40:26.545Z,-77
2022-10-31T07:42:56.082Z,-78
2022-10-31T07:45:26.941Z,-76
2022-10-31T07:47:54.865Z,-76
2022-10-31T07:50:32.105Z,-77
2022-10-31T07:53:05.889Z,-78
2022-10-31T07:55:34.086Z,-78
2022-10-31T07:58:20.613Z,-78
2022-10-31T08:00:49.070Z,-80
2022-10-31T08:03:19.999Z,-78
2022-10-31T08:05:47.514Z,-79
2022-10-31T08:08:15.710Z,-76
2022-10-31T08:10:43.285Z,-76
2022-10-31T08:13:15.184Z,-77
2022-10-31T08:15:42.790Z,-80
2022-10-31T08:18:15.729Z,-76
2022-10-31T08:20:44.608Z,-77
2022-10-31T08:23:13.545Z,-78
2022-10-31T08:25:41.426Z,-78
2022-10-31T08:28:11.301Z,-77
2022-10-31T08:30:39.337Z,-78
2022-10-31T08:33:18.497Z,-84
2022-10-31T08:35:45.979Z,-78
2022-10-31T08:38:14.322Z,-76
2022-10-31T08:40:42.316Z,-79
2022-10-31T08:43:18.169Z,-77
2022-10-31T08:45:49.539Z,-78
2022-10-31T08:48:18.387Z,-78
2022-10-31T08:50:46.942Z,-78
2022-10-31T08:53:16.922Z,-76
2022-10-31T08:55:46.007Z,-77
2022-10-31T08:58:19.593Z,-75
2022-10-31T09:00:49.271Z,-76
2022-10-31T09:03:26.135Z,-76
2022-10-31T09:05:58.609Z,-76
2022-10-31T09:08:26.600Z,-76
2022-10-31T09:10:57.717Z,-75
2022-10-31T09:13:27.967Z,-76
2022-10-31T09:15:58.091Z,-77
2022-10-31T09:18:26.096Z,-75
2022-10-31T09:20:53.251Z,-75
2022-10-31T09:23:23.789Z,-76
2022-10-31T09:25:53.708Z,-76
2022-10-31T09:28:24.552Z,-79
2022-10-31T09:30:54.367Z,-78
2022-10-31T09:33:22.345Z,-77
2022-10-31T09:35:49.627Z,-76
2022-10-31T09:38:22.139Z,-76
2022-10-31T09:41:26.462Z,-77
2022-10-31T09:44:38.333Z,-78
2022-10-31T09:47:11.309Z,-76
2022-10-31T09:50:19.227Z,-77
2022-10-31T09:53:03.709Z,-76
2022-10-31T09:55:45.586Z,-78
2022-10-31T09:58:29.787Z,-77
2022-10-31T10:01:02.889Z,-80
2022-10-31T10:03:49.715Z,-76
2022-10-31T10:06:33.668Z,-77
2022-10-31T10:09:02.557Z,-77
2022-10-31T10:12:15.407Z,-79
2022-10-31T10:15:19.518Z,-76
2022-10-31T10:18:24.236Z,-77
2022-10-31T10:21:35.920Z,-77
2022-10-31T10:24:23.715Z,-77
2022-10-31T10:27:17.998Z,-76
2022-10-31T10:30:23.269Z,-77
2022-10-31T10:33:03.544Z,-77
2022-10-31T10:35:34.668Z,-79
2022-10-31T10:38:21.109Z,-78
2022-10-31T10:40:49.113Z,-76
2022-10-31T10:43:36.403Z,-74
2022-10-31T10:46:44.667Z,-76
2022-10-31T10:49:43.059Z,-76
2022-10-31T10:52:54.232Z,-77
2022-10-31T10:55:30.281Z,-76
2022-10-31T10:58:04.702Z,-78
2022-10-31T11:00:47.925Z,-76
2022-10-31T11:03:17.952Z,-76
2022-10-31T11:05:59.255Z,-78
2022-10-31T11:08:37.370Z,-76
2022-10-31T11:11:12.307Z,-77
2022-10-31T11:13:44.895Z,-77
2022-10-31T11:16:39.542Z,-76
2022-10-31T11:19:17.660Z,-76
2022-10-31T11:21:49.843Z,-75
2022-10-31T11:24:26.109Z,-75
2022-10-31T11:27:12.749Z,-75
2022-10-31T11:29:40.017Z,-76
2022-10-31T11:32:22.044Z,-76
2022-10-31T11:35:00.305Z,-76
2022-10-31T11:37:33.106Z,-75
2022-10-31T11:40:06.351Z,-77
2022-10-31T11:42:43.369Z,-75
2022-10-31T11:45:20.669Z,-75
2022-10-31T11:47:58.239Z,-74
2022-10-31T11:50:35.625Z,-79
2022-10-31T11:53:04.588Z,-77
2022-10-31T11:55:39.248Z,-76
2022-10-31T11:58:21.617Z,-76
2022-10-31T12:00:56.299Z,-76
2022-10-31T12:03:23.480Z,-77
2022-10-31T12:06:20.562Z,-76
2022-10-31T12:08:48.143Z,-77
2022-10-31T12:11:50.730Z,-76
2022-10-31T12:15:02.225Z,-75
2022-10-31T12:17:47.368Z,-77
2022-10-31T12:21:10.074Z,-75
2022-10-31T12:24:21.796Z,-76
2022-10-31T12:26:54.949Z,-78
2022-10-31T12:29:36.291Z,-76
2022-10-31T12:32:30.653Z,-77
2022-10-31T12:35:41.992Z,-75
2022-10-31T12:38:36.628Z,-74
2022-10-31T12:41:42.582Z,-77
2022-10-31T12:44:37.612Z,-76
2022-10-31T12:47:38.863Z,-79
2022-10-31T12:50:52.922Z,-78
2022-10-31T12:53:35.026Z,-77
2022-10-31T12:56:31.942Z,-77
2022-10-31T12:59:25.402Z,-77
2022-10-31T13:02:04.689Z,-77
2022-10-31T13:05:11.444Z,-76
2022-10-31T13:08:10.278Z,-78
2022-10-31T13:10:57.038Z,-77
2022-10-31T13:13:42.443Z,-76
2022-10-31T13:16:23.727Z,-78
2022-10-31T13:19:01.395Z,-74
2022-10-31T13:22:05.545Z,-77
2022-10-31T13:25:12.080Z,-77
2022-10-31T13:28:03.749Z,-75
2022-10-31T13:30:37.523Z,-76
2022-10-31T13:33:40.796Z,-77
2022-10-31T13:36:40.490Z,-76
2022-10-31T13:39:44.594Z,-76
2022-10-31T13:42:49.705Z,-75
2022-10-31T13:45:21.832Z,-76
2022-10-31T13:48:20.980Z,-75
2022-10-31T13:51:01.960Z,-77
2022-10-31T13:53:41.288Z,-76
2022-10-31T13:56:27.841Z,-76
2022-10-31T13:59:17.333Z,-76
2022-10-31T14:01:57.526Z,-77
2022-10-31T14:04:29.318Z,-76
2022-10-31T14:07:07.479Z,-76
2022-10-31T14:09:49.363Z,-77
2022-10-31T14:12:41.399Z,-76
2022-10-31T14:15:25.402Z,-77
2022-10-31T14:18:20.167Z,-76
2022-10-31T14:20:47.371Z,-75
2022-10-31T14:23:40.520Z,-77
2022-10-31T14:26:26.711Z,-75
2022-10-31T14:29:01.362Z,-77
2022-10-31T14:31:42.273Z,-76
2022-10-31T14:34:38.398Z,-75
2022-10-31T14:37:43.343Z,-77
2022-10-31T14:40:27.539Z,-79
2022-10-31T14:43:13.180Z,-75
2022-10-31T14:46:29.121Z,-76
2022-10-31T14:49:35.316Z,-76
2022-10-31T14:52:08.091Z,-76
2022-10-31T14:54:48.805Z,-78
2022-10-31T14:57:23.449Z,-77
2022-10-31T14:59:59.180Z,-75
2022-10-31T15:03:13.546Z,-76
2022-10-31T15:05:52.911Z,-78
2022-10-31T15:08:35.599Z,-78
2022-10-31T15:11:25.449Z,-76
2022-10-31T15:13:57.894Z,-76
2022-10-31T15:16:40.745Z,-76
2022-10-31T15:19:16.616Z,-75
2022-10-31T15:21:46.687Z,-77
2022-10-31T15:24:17.271Z,-78
2022-10-31T15:26:50.256Z,-77
2022-10-31T15:29:20.923Z,-78
2022-10-31T15:31:54.254Z,-76
2022-10-31T15:34:44.070Z,-77
2022-10-31T15:37:17.890Z,-78
2022-10-31T15:39:47.370Z,-75
2022-10-31T15:42:43.759Z,-76
2022-10-31T15:45:10.914Z,-77
2022-10-31T15:47:38.933Z,-79
2022-10-31T15:50:21.791Z,-78
2022-10-31T15:52:50.252Z,-78
2022-10-31T15:55:26.695Z,-78
2022-10-31T15:58:00.136Z,-79
2022-10-31T16:00:34.473Z,-79
2022-10-31T16:03:07.597Z,-79
2022-10-31T16:05:53.116Z,-78
2022-10-31T16:08:33.916Z,-78
2022-10-31T16:11:38.002Z,-82
2022-10-31T16:14:25.273Z,-79
2022-10-31T16:17:03.049Z,-78
2022-10-31T16:19:44.186Z,-80
2022-10-31T16:22:21.960Z,-77
2022-10-31T16:24:52.256Z,-75
2022-10-31T16:27:25.820Z,-79
2022-10-31T16:29:53.598Z,-81
2022-10-31T16:32:38.523Z,-78
2022-10-31T16:35:35.990Z,-77
2022-10-31T16:38:05.360Z,-78
2022-10-31T16:40:33.480Z,-78
2022-10-31T16:43:02.270Z,-78
2022-10-31T16:45:34.064Z,-77
2022-10-31T16:48:12.112Z,-78
2022-10-31T16:50:39.739Z,-77
2022-10-31T16:53:14.789Z,-78
2022-10-31T16:55:56.140Z,-78
2022-10-31T16:58:36.512Z,-78
2022-10-31T17:01:07.885Z,-79
2022-10-31T17:03:36.312Z,-80
2022-10-31T17:06:03.792Z,-80
2022-10-31T17:08:31.067Z,-81
2022-10-31T17:11:00.699Z,-78
2022-10-31T17:13:31.909Z,-81
2022-10-31T17:16:02.978Z,-79
2022-10-31T17:18:30.696Z,-79
2022-10-31T17:21:05.629Z,-80
2022-10-31T17:23:33.682Z,-79
2022-10-31T17:26:03.679Z,-82
2022-10-31T17:28:44.548Z,-82
2022-10-31T17:31:27.174Z,-80
2022-10-31T17:34:02.042Z,-80
2022-10-31T17:36:32.522Z,-80
2022-10-31T17:39:00.312Z,-80
2022-10-31T17:41:27.537Z,-78
2022-10-31T17:43:59.612Z,-80
2022-10-31T17:46:27.191Z,-80
2022-10-31T17:48:54.408Z,-81
2022-10-31T17:51:21.627Z,-83
2022-10-31T17:53:48.894Z,-80
2022-10-31T17:56:16.226Z,-80
2022-10-31T17:58:43.376Z,-82
2022-10-31T18:01:14.345Z,-78
2022-10-31T18:03:42.162Z,-79
2022-10-31T18:06:11.127Z,-80
2022-10-31T18:08:41.200Z,-80
2022-10-31T18:11:16.001Z,-79
2022-10-31T18:13:43.209Z,-79
2022-10-31T18:16:15.332Z,-80
2022-10-31T18:18:42.874Z,-79
2022-10-31T18:21:10.501Z,-78
2022-10-31T18:23:38.022Z,-79
2022-10-31T18:26:05.347Z,-79
2022-10-31T18:28:32.571Z,-81
2022-10-31T18:31:00.460Z,-79
2022-10-31T18:33:28.228Z,-82
2022-10-31T18:35:56.000Z,-81
2022-10-31T18:38:23.583Z,-79
2022-10-31T18:40:52.033Z,-80
2022-10-31T18:43:19.210Z,-81
2022-10-31T18:45:48.585Z,-77
2022-10-31T18:48:17.658Z,-81
2022-10-31T18:50:45.262Z,-82
2022-10-31T18:53:12.530Z,-79
2022-10-31T18:55:45.731Z,-79
2022-10-31T18:58:17.748Z,-82
2022-10-31T19:00:45.350Z,-79
2022-10-31T19:03:13.912Z,-80
2022-10-31T19:05:41.331Z,-79
2022-10-31T19:08:08.591Z,-80
2022-10-31T19:10:38.587Z,-77
2022-10-31T19:13:06.696Z,-78
2022-10-31T19:15:35.564Z,-79
2022-10-31T19:18:03.350Z,-80
2022-10-31T19:20:31.767Z,-79
2022-10-31T19:22:59.287Z,-78
2022-10-31T19:25:26.754Z,-77
2022-10-31T19:27:54.238Z,-79
2022-10-31T19:30:21.768Z,-80
2022-10-31T19:32:48.974Z,-78
2022-10-31T19:35:16.294Z,-80
2022-10-31T19:37:43.447Z,-77
2022-10-31T19:40:11.666Z,-81
2022-10-31T19:42:38.833Z,-79
2022-10-31T19:45:06.866Z,-81
2022-10-31T19:47:34.209Z,-80
2022-10-31T19:50:02.513Z,-79
2022-10-31T19:52:29.816Z,-80
2022-10-31T19:54:57.013Z,-80
2022-10-31T19:57:41.959Z,-79
2022-10-31T20:00:12.317Z,-80
2022-10-31T20:02:39.565Z,-81
2022-10-31T20:05:07.268Z,-80
2022-10-31T20:07:34.810Z,-80
2022-10-31T20:10:01.993Z,-82
2022-10-31T20:12:29.605Z,-82
2022-10-31T20:14:56.801Z,-81
2022-10-31T20:17:23.968Z,-81
2022-10-31T20:19:51.199Z,-83
2022-10-31T20:22:18.653Z,-80
2022-10-31T20:24:46.160Z,-80
2022-10-31T20:27:13.399Z,-82
2022-10-31T20:29:40.705Z,-80
2022-10-31T20:32:08.049Z,-80
2022-10-31T20:34:35.274Z,-77
2022-10-31T20:37:02.486Z,-82
2022-10-31T20:39:29.702Z,-81
2022-10-31T20:41:56.903Z,-80
2022-10-31T20:44:24.102Z,-79
2022-10-31T20:46:51.265Z,-80
2022-10-31T20:49:18.455Z,-81
2022-10-31T20:51:45.782Z,-79
2022-10-31T20:54:14.388Z,-80
2022-10-31T20:56:41.605Z,-81
2022-10-31T20:59:08.915Z,-81
2022-10-31T21:01:36.320Z,-78
2022-10-31T21:04:05.336Z,-80
2022-10-31T21:06:32.680Z,-83
2022-10-31T21:08:59.950Z,-80
2022-10-31T21:11:29.057Z,-79
2022-10-31T21:13:56.569Z,-80
2022-10-31T21:16:32.821Z,-78
2022-10-31T21:19:01.215Z,-80
2022-10-31T21:21:36.868Z,-81
2022-10-31T21:24:13.987Z,-79
2022-10-31T21:26:46.068Z,-80
2022-10-31T21:29:15.072Z,-79
2022-10-31T21:31:43.479Z,-79
2022-10-31T21:34:11.864Z,-80
2022-10-31T21:36:39.800Z,-81
2022-10-31T21:39:08.745Z,-79
2022-10-31T21:41:36.579Z,-79
2022-10-31T21:44:04.516Z,-81
2022-10-31T21:46:33.857Z,-80
2022-10-31T21:49:03.776Z,-79
2022-10-31T21:51:35.577Z,-82
2022-10-31T21:54:03.523Z,-80
2022-10-31T21:56:31.128Z,-79
2022-10-31T21:58:59.362Z,-80
2022-10-31T22:01:29.192Z,-80
2022-10-31T22:03:57.982Z,-81
2022-10-31T22:06:26.955Z,-80
2022-10-31T22:08:54.937Z,-80
2022-10-31T22:11:22.549Z,-79
2022-10-31T22:13:50.752Z,-79
2022-10-31T22:16:22.262Z,-81
2022-10-31T22:18:54.744Z,-81
2022-10-31T22:21:25.656Z,-79
2022-10-31T22:24:01.998Z,-79
2022-10-31T22:26:33.579Z,-80
2022-10-31T22:29:05.770Z,-80
2022-10-31T22:31:37.263Z,-79
2022-10-31T22:34:04.543Z,-79
2022-10-31T22:36:32.448Z,-80
2022-10-31T22:39:00.041Z,-80
2022-10-31T22:41:31.338Z,-79
2022-10-31T22:44:00.107Z,-80
2022-10-31T22:46:37.147Z,-79
2022-10-31T22:49:12.289Z,-80
2022-10-31T22:51:40.993Z,-81
2022-10-31T22:54:14.137Z,-80
2022-10-31T22:56:41.786Z,-79
2022-10-31T22:59:13.977Z,-79
2022-10-31T23:01:41.601Z,-79
2022-10-31T23:04:09.312Z,-79
2022-10-31T23:06:37.692Z,-79
2022-10-31T23:09:07.810Z,-79
2022-10-31T23:11:39.202Z,-81
2022-10-31T23:14:14.704Z,-78
2022-10-31T23:16:54.979Z,-81
2022-10-31T23:19:30.365Z,-82
2022-10-31T23:22:02.920Z,-80
2022-10-31T23:24:39.628Z,-82
2022-10-31T23:27:13.995Z,-79
2022-10-31T23:29:52.906Z,-80
2022-10-31T23:32:27.251Z,-80
2022-10-31T23:34:58.466Z,-80
2022-10-31T23:37:29.954Z,-81
2022-10-31T23:39:58.076Z,-80
2022-10-31T23:42:27.170Z,-81
2022-10-31T23:44:55.132Z,-82
2022-10-31T23:47:23.379Z,-81
2022-10-31T23:49:51.348Z,-80
2022-10-31T23:52:18.608Z,-80
2022-10-31T23:54:45.973Z,-80
2022-10-31T23:57:15.846Z,-79
2022-10-31T23:59:43.460Z,-79
